Time;durP1;ratioP1;P1;durP2;ratioP2;P2;SDS_P1;SDS_P2;PMS_P1;PMS_P2;Temp;Humidity;BMP_temperature;BMP_pressure;BME280_temperature;BME280_humidity;BME280_pressure;Samples;Min_cycle;Max_cycle;Signal;HPM_P1;HPM_P2
2023/01/09 00:01:49;;;;;;;24.20;7.22;;;;;;;-5.14;64.89;101346.19;1707008;84;21001;-48
2023/01/09 00:04:18;;;;;;;18.30;6.55;;;;;;;-5.15;64.77;101339.11;1707078;84;21009;-50
2023/01/09 00:06:52;;;;;;;17.95;6.97;;;;;;;-5.16;64.69;101332.90;1707201;84;20986;-50
2023/01/09 00:09:22;;;;;;;18.07;6.35;;;;;;;-5.16;64.58;101331.56;1707204;84;21009;-50
2023/01/09 00:11:53;;;;;;;21.65;6.72;;;;;;;-5.14;64.56;101335.03;1707021;84;20998;-51
2023/01/09 00:14:23;;;;;;;22.77;6.78;;;;;;;-5.14;64.47;101336.36;1707308;84;20982;-50
2023/01/09 00:16:54;;;;;;;17.80;6.55;;;;;;;-5.14;64.54;101342.17;1706892;84;21033;-49
2023/01/09 00:19:25;;;;;;;19.60;6.53;;;;;;;-5.13;64.51;101334.56;1716479;83;21044;-50
2023/01/09 00:21:57;;;;;;;20.48;7.92;;;;;;;-5.12;64.40;101334.95;1719792;83;21040;-49
2023/01/09 00:24:27;;;;;;;18.02;6.53;;;;;;;-5.11;64.40;101339.36;1719732;83;21005;-49
2023/01/09 00:26:56;;;;;;;16.55;6.15;;;;;;;-5.12;64.30;101337.63;1719773;83;21053;-50
2023/01/09 00:29:26;;;;;;;20.88;7.20;;;;;;;-5.12;64.36;101340.30;1719901;83;21001;-50
2023/01/09 00:31:55;;;;;;;22.87;7.30;;;;;;;-5.10;64.40;101335.74;1720162;83;21373;-49
2023/01/09 00:34:25;;;;;;;22.22;7.37;;;;;;;-5.05;64.29;101335.52;1719782;83;21481;-50
2023/01/09 00:36:55;;;;;;;18.12;6.85;;;;;;;-5.03;64.15;101339.84;1719721;83;20989;-50
2023/01/09 00:39:24;;;;;;;18.70;6.97;;;;;;;-5.01;64.01;101335.29;1720041;83;21495;-49
2023/01/09 00:41:54;;;;;;;17.57;5.92;;;;;;;-5.00;63.94;101330.81;1719746;83;21033;-49
2023/01/09 00:44:34;;;;;;;20.60;6.72;;;;;;;-4.96;63.95;101327.05;1719738;83;21052;-50
2023/01/09 00:47:20;;;;;;;16.57;6.67;;;;;;;-4.94;63.84;101319.81;1719467;83;20990;-52
2023/01/09 00:49:48;;;;;;;17.82;6.78;;;;;;;-4.96;63.70;101316.36;1719808;83;20966;-51
2023/01/09 00:52:17;;;;;;;17.17;6.92;;;;;;;-4.95;63.72;101304.25;1719714;83;21033;-51
2023/01/09 00:54:47;;;;;;;21.80;6.60;;;;;;;-4.91;63.72;101292.47;1720011;83;21049;-50
2023/01/09 00:57:16;;;;;;;17.82;6.37;;;;;;;-4.91;63.72;101292.47;1720056;83;21057;-50
2023/01/09 00:59:46;;;;;;;18.87;6.30;;;;;;;-4.91;63.45;101277.77;1719748;83;21021;-50
2023/01/09 01:02:15;;;;;;;21.02;7.03;;;;;;;-4.92;63.32;101284.05;1719857;83;21032;-50
2023/01/09 01:07:40;;;;;;;19.02;6.25;;;;;;;-4.94;63.25;101275.25;1664371;86;21100;-49
2023/01/09 01:10:15;;;;;;;18.32;6.08;;;;;;;-4.92;63.24;101276.04;1664539;86;21160;-50
2023/01/09 01:12:44;;;;;;;14.35;6.20;;;;;;;-4.92;63.20;101270.69;1664489;86;21203;-50
2023/01/09 01:15:14;;;;;;;14.63;5.65;;;;;;;-4.94;63.13;101268.56;1664692;86;21107;-50
2023/01/09 01:17:43;;;;;;;21.25;6.28;;;;;;;-4.94;63.13;101268.56;1664794;86;21061;-49
2023/01/09 01:20:16;;;;;;;15.83;5.83;;;;;;;-4.91;63.13;101273.76;1659192;86;21102;-50
2023/01/09 01:22:45;;;;;;;18.00;6.60;;;;;;;-4.89;63.00;101263.86;1675906;85;21115;-51
2023/01/09 01:25:15;;;;;;;22.60;6.53;;;;;;;-4.89;62.94;101243.81;1673271;84;21029;-50
2023/01/09 01:27:45;;;;;;;12.18;5.20;;;;;;;-4.86;62.88;101248.13;1690067;85;21015;-49
2023/01/09 01:30:14;;;;;;;15.95;6.03;;;;;;;-4.85;62.78;101249.39;1689976;85;21185;-50
2023/01/09 01:32:43;;;;;;;19.23;5.97;;;;;;;-4.81;62.85;101236.26;1689628;85;21435;-49
2023/01/09 01:35:12;;;;;;;15.30;5.10;;;;;;;-4.81;62.85;101236.26;1709780;84;21406;-50
2023/01/09 01:37:40;;;;;;;17.00;5.10;;;;;;;-4.76;62.79;101232.48;1689872;84;21446;-49
2023/01/09 01:40:11;;;;;;;14.70;5.03;;;;;;;-4.77;62.84;101229.42;1689724;85;21082;-49
2023/01/09 01:42:50;;;;;;;18.55;5.97;;;;;;;-4.79;62.93;101227.69;1689726;85;21455;-50
2023/01/09 01:45:21;;;;;;;21.57;6.53;;;;;;;-4.78;63.08;101224.55;1689803;84;21479;-48
2023/01/09 01:48:05;;;;;;;16.37;5.47;;;;;;;-4.77;63.41;101224.08;1689804;85;21051;-49
2023/01/09 01:50:59;;;;;;;22.52;5.95;;;;;;;-4.75;63.46;101223.52;1709501;84;21609;-48
2023/01/09 01:53:39;;;;;;;17.75;5.22;;;;;;;-4.75;63.46;101223.52;1689701;84;21082;-48
2023/01/09 01:56:19;;;;;;;19.77;5.62;;;;;;;-4.71;63.29;101225.09;1708218;84;21053;-50
2023/01/09 01:58:53;;;;;;;14.80;5.40;;;;;;;-4.71;63.18;101223.28;1640801;87;21026;-49
2023/01/09 02:01:22;;;;;;;14.40;5.65;;;;;;;-4.69;62.88;101213.37;1661388;84;21054;-49
2023/01/09 02:03:53;;;;;;;17.70;4.97;;;;;;;-4.69;62.88;101213.37;1659335;86;21066;-50
2023/01/09 02:06:24;;;;;;;16.02;5.55;;;;;;;-4.67;62.66;101215.96;1676042;85;21058;-49
2023/01/09 02:08:53;;;;;;;16.77;5.45;;;;;;;-4.70;62.63;101206.77;1659193;86;21023;-51
2023/01/09 02:11:23;;;;;;;12.68;5.08;;;;;;;-4.70;62.75;101200.08;1641066;87;21061;-49
2023/01/09 02:13:52;;;;;;;11.03;4.58;;;;;;;-4.71;62.80;101193.88;1676127;85;21097;-50
2023/01/09 02:16:56;;;;;;;15.98;5.05;;;;;;;-4.73;63.22;101184.20;1659323;86;21050;-50
2023/01/09 02:19:39;;;;;;;10.63;4.55;;;;;;;-4.73;63.22;101184.20;1659311;86;21095;-49
2023/01/09 02:22:18;;;;;;;16.15;5.08;;;;;;;-4.73;63.90;101175.71;1640985;87;21078;-49
2023/01/09 02:24:59;;;;;;;21.27;5.67;;;;;;;-4.71;64.40;101167.61;1661717;86;21126;-49
2023/01/09 02:28:17;;;;;;;12.25;4.55;;;;;;;-4.71;64.40;101167.61;1644532;85;21454;-51
2023/01/09 02:31:05;;;;;;;18.30;4.75;;;;;;;-4.70;64.74;101170.20;1682603;85;21110;-49
2023/01/09 02:33:46;;;;;;;14.00;4.60;;;;;;;-4.71;65.07;101166.27;1659243;86;21051;-49
2023/01/09 02:36:22;;;;;;;18.65;4.50;;;;;;;-4.72;65.63;101170.76;1665312;85;21328;-50
2023/01/09 02:39:08;;;;;;;16.73;5.60;;;;;;;-4.72;65.63;101170.76;1699310;84;21077;-50
2023/01/09 02:41:55;;;;;;;12.35;4.60;;;;;;;-4.73;65.62;101159.67;1698416;84;21011;-50
2023/01/09 02:44:26;;;;;;;15.88;4.60;;;;;;;-4.79;66.42;101153.31;1659264;86;21078;-51
2023/01/09 02:47:18;;;;;;;20.45;4.60;;;;;;;-4.79;66.42;101153.31;1699371;84;21066;-49
2023/01/09 02:50:03;;;;;;;22.45;5.30;;;;;;;-4.81;67.78;101154.73;1676481;84;21014;-50
2023/01/09 02:53:00;;;;;;;18.12;4.45;;;;;;;-4.81;67.78;101154.73;1699418;84;21101;-49
2023/01/09 02:55:44;;;;;;;14.03;4.78;;;;;;;-4.80;68.12;101158.27;1699181;83;21035;-49
2023/01/09 02:58:32;;;;;;;16.67;5.22;;;;;;;-4.84;68.66;101161.58;1699360;84;21458;-49
2023/01/09 03:01:36;;;;;;;16.67;4.47;;;;;;;-4.86;69.12;101147.44;1683911;84;21043;-50
2023/01/09 03:04:23;;;;;;;18.23;4.78;;;;;;;-4.87;69.44;101151.05;1640639;87;21466;-48
2023/01/09 03:07:21;;;;;;;13.50;4.65;;;;;;;-4.87;69.87;101143.03;1625190;86;21114;-50
2023/01/09 03:09:53;;;;;;;11.45;4.42;;;;;;;-4.88;70.08;101143.98;1640801;87;21030;-50
2023/01/09 03:12:23;;;;;;;17.85;4.97;;;;;;;-4.93;70.79;101158.53;1619376;87;21565;-50
2023/01/09 03:14:55;;;;;;;14.50;5.28;;;;;;;-4.97;71.06;101151.62;1641020;87;21443;-48
2023/01/09 03:17:34;;;;;;;13.93;4.60;;;;;;;-4.97;71.41;101157.83;1640812;87;21116;-49
2023/01/09 03:20:05;;;;;;;15.38;4.72;;;;;;;-4.95;71.80;101154.60;1624381;87;21447;-49
2023/01/09 03:22:35;;;;;;;13.08;4.67;;;;;;;-4.96;72.13;101152.88;1616432;89;21125;-49
2023/01/09 03:25:05;;;;;;;18.17;5.15;;;;;;;-4.98;72.67;101157.44;1616405;89;21531;-49
2023/01/09 03:27:34;;;;;;;23.30;5.25;;;;;;;-5.02;73.20;101141.17;1616281;86;21035;-48
2023/01/09 03:30:04;;;;;;;18.42;5.47;;;;;;;-5.04;73.61;101125.70;1709828;84;21475;-48
2023/01/09 03:32:34;;;;;;;16.87;5.58;;;;;;;-5.03;74.11;101119.41;1709704;84;21048;-48
2023/01/09 03:35:03;;;;;;;17.00;5.22;;;;;;;-5.05;74.47;101123.97;1709788;84;21411;-50
2023/01/09 03:37:32;;;;;;;13.53;4.40;;;;;;;-5.04;74.85;101115.01;1709612;84;21029;-49
2023/01/09 03:40:03;;;;;;;14.58;5.08;;;;;;;-5.02;75.23;101115.79;1709487;84;20982;-50
2023/01/09 03:42:32;;;;;;;15.25;4.95;;;;;;;-5.04;75.50;101117.67;1709678;84;21005;-50
2023/01/09 03:45:01;;;;;;;19.82;5.30;;;;;;;-5.04;75.85;101102.98;1709763;84;21085;-50
2023/01/09 03:47:30;;;;;;;14.50;4.97;;;;;;;-5.05;76.08;101114.62;1709477;84;21500;-49
2023/01/09 03:49:59;;;;;;;10.98;4.60;;;;;;;-5.07;76.35;101108.48;1710000;84;20978;-50
2023/01/09 03:52:27;;;;;;;16.65;5.25;;;;;;;-5.09;76.63;101116.19;1709774;84;21079;-49
2023/01/09 03:54:58;;;;;;;12.28;5.12;;;;;;;-5.12;76.97;101112.73;1709765;83;21009;-49
2023/01/09 03:57:27;;;;;;;17.27;5.58;;;;;;;-5.12;77.24;101113.20;1709569;84;21070;-50
2023/01/09 03:59:56;;;;;;;20.90;5.47;;;;;;;-5.11;77.46;101114.47;1709752;83;21049;-52
2023/01/09 04:02:25;;;;;;;16.90;5.20;;;;;;;-5.09;77.77;101106.84;1709455;84;21418;-48
2023/01/09 04:04:54;;;;;;;14.63;5.40;;;;;;;-5.07;77.84;101104.48;1709670;84;21053;-49
2023/01/09 04:07:23;;;;;;;20.00;5.67;;;;;;;-5.04;77.93;101100.78;1709813;84;21057;-49
2023/01/09 04:09:52;;;;;;;16.40;5.40;;;;;;;-5.06;77.89;101102.20;1709571;84;21006;-50
2023/01/09 04:12:20;;;;;;;15.93;4.92;;;;;;;-5.09;78.07;101098.36;1709743;83;21057;-50
2023/01/09 04:14:51;;;;;;;18.50;6.03;;;;;;;-5.08;78.25;101092.54;1652488;86;21104;-50
2023/01/09 04:17:19;;;;;;;14.30;4.95;;;;;;;-5.05;78.47;101099.92;1652733;87;21051;-49
2023/01/09 04:19:49;;;;;;;17.32;5.72;;;;;;;-5.05;78.47;101099.92;1662057;85;21097;-52
2023/01/09 04:22:19;;;;;;;15.95;5.37;;;;;;;-5.06;78.48;101094.19;1661784;86;21022;-50
2023/01/09 04:24:48;;;;;;;11.20;4.85;;;;;;;-5.04;78.64;101092.77;1676132;85;21506;-50
2023/01/09 04:27:17;;;;;;;12.53;5.08;;;;;;;-5.02;78.76;101091.74;1662096;86;21030;-50
2023/01/09 04:29:46;;;;;;;14.63;5.33;;;;;;;-5.01;78.87;101092.13;1676403;85;21170;-49
2023/01/09 04:32:15;;;;;;;15.23;5.85;;;;;;;-5.01;79.05;101082.78;1672255;83;21004;-50
2023/01/09 04:34:46;;;;;;;18.32;5.58;;;;;;;-4.98;79.11;101075.07;1702161;84;21010;-49
2023/01/09 04:37:16;;;;;;;16.65;6.70;;;;;;;-4.96;79.25;101068.70;1702003;84;21002;-49
2023/01/09 04:39:45;;;;;;;13.85;5.22;;;;;;;-4.95;79.44;101075.77;1676529;84;21513;-49
2023/01/09 04:42:17;;;;;;;13.53;5.33;;;;;;;-4.95;79.44;101075.77;1719710;83;21324;-50
2023/01/09 04:44:46;;;;;;;15.40;5.80;;;;;;;-4.96;79.54;101074.52;1647506;86;21078;-49
2023/01/09 04:47:15;;;;;;;16.67;5.60;;;;;;;-4.94;79.76;101074.83;1720115;83;21028;-50
2023/01/09 04:49:44;;;;;;;13.40;5.00;;;;;;;-4.95;80.07;101069.09;1702265;84;21053;-49
2023/01/09 04:52:13;;;;;;;13.80;4.67;;;;;;;-4.95;80.07;101069.09;1701924;84;21034;-50
2023/01/09 04:54:42;;;;;;;15.55;5.25;;;;;;;-4.98;80.16;101070.59;1719942;83;21044;-49
2023/01/09 04:57:11;;;;;;;13.60;4.95;;;;;;;-4.98;80.38;101072.40;1672312;86;21129;-49
2023/01/09 04:59:40;;;;;;;13.40;5.47;;;;;;;-4.99;80.62;101068.86;1719994;83;21049;-50
2023/01/09 05:02:09;;;;;;;13.58;5.25;;;;;;;-5.02;80.92;101063.69;1702224;83;21079;-49
2023/01/09 05:04:38;;;;;;;9.70;4.40;;;;;;;-5.02;81.23;101064.16;1701970;84;21085;-48
2023/01/09 05:07:08;;;;;;;17.50;5.67;;;;;;;-5.00;81.49;101061.80;1702067;83;21038;-51
2023/01/09 05:09:36;;;;;;;12.93;5.35;;;;;;;-5.05;81.85;101067.00;1701886;84;21062;-50
2023/01/09 05:12:06;;;;;;;21.80;5.40;;;;;;;-5.05;81.85;101067.00;1702160;84;21013;-50
2023/01/09 05:14:36;;;;;;;13.45;5.05;;;;;;;-5.03;82.09;101064.63;1702126;83;21069;-50
2023/01/09 05:17:05;;;;;;;15.28;5.22;;;;;;;-5.01;82.28;101065.41;1702172;84;21066;-49
2023/01/09 05:19:35;;;;;;;17.17;6.12;;;;;;;-5.00;82.51;101057.78;1700427;84;21023;-48
2023/01/09 05:22:05;;;;;;;13.53;5.45;;;;;;;-4.97;82.66;101064.30;1692670;85;21095;-49
2023/01/09 05:24:34;;;;;;;15.68;5.15;;;;;;;-4.94;82.85;101062.80;1692888;85;21047;-50
2023/01/09 05:27:03;;;;;;;17.65;5.25;;;;;;;-4.94;82.85;101062.80;1692678;85;21051;-49
2023/01/09 05:29:32;;;;;;;11.80;5.20;;;;;;;-4.90;82.94;101060.34;1692678;85;21451;-50
2023/01/09 05:32:01;;;;;;;14.75;5.50;;;;;;;-4.88;82.91;101057.13;1692888;85;21474;-50
2023/01/09 05:34:31;;;;;;;14.53;6.03;;;;;;;-4.87;82.89;101049.49;1692690;85;21463;-49
2023/01/09 05:37:00;;;;;;;18.20;5.72;;;;;;;-4.85;82.83;101050.75;1692892;84;20994;-49
2023/01/09 05:39:29;;;;;;;16.55;6.65;;;;;;;-4.83;82.80;101045.70;1692904;85;21042;-49
2023/01/09 05:41:58;;;;;;;19.75;8.08;;;;;;;-4.79;82.81;101044.59;1692861;85;21090;-51
2023/01/09 05:44:27;;;;;;;15.83;5.75;;;;;;;-4.78;82.88;101037.44;1692819;84;21085;-49
2023/01/09 05:46:56;;;;;;;14.20;5.72;;;;;;;-4.80;82.87;101034.84;1692930;84;21026;-49
2023/01/09 05:49:25;;;;;;;17.48;8.13;;;;;;;-4.79;83.02;101037.91;1692771;85;21067;-50
2023/01/09 05:51:54;;;;;;;13.72;5.78;;;;;;;-4.75;83.08;101046.63;1692682;85;21960;-50
2023/01/09 05:54:23;;;;;;;15.23;6.22;;;;;;;-4.71;83.06;101048.18;1692955;85;21101;-50
2023/01/09 05:56:52;;;;;;;16.05;6.50;;;;;;;-4.71;83.06;101048.18;1692738;85;21034;-49
2023/01/09 05:59:21;;;;;;;19.37;7.33;;;;;;;-4.70;82.89;101042.36;1692831;85;21058;-51
2023/01/09 06:01:53;;;;;;;16.75;6.03;;;;;;;-4.70;82.80;101045.03;1692851;85;21015;-51
2023/01/09 06:04:22;;;;;;;18.02;6.92;;;;;;;-4.67;82.76;101051.55;1692801;85;21122;-49
2023/01/09 06:06:51;;;;;;;13.60;6.10;;;;;;;-4.69;82.65;101050.77;1692899;85;21052;-50
2023/01/09 06:09:20;;;;;;;15.15;6.70;;;;;;;-4.68;82.54;101048.48;1692875;85;21006;-50
2023/01/09 06:11:49;;;;;;;13.43;6.62;;;;;;;-4.68;82.45;101042.66;1692744;85;21070;-50
2023/01/09 06:14:20;;;;;;;14.30;6.45;;;;;;;-4.66;82.37;101041.23;1692578;85;21446;-50
2023/01/09 06:16:49;;;;;;;16.97;6.35;;;;;;;-4.65;82.29;101042.96;1692948;84;21041;-49
2023/01/09 06:19:18;;;;;;;11.97;5.95;;;;;;;-4.64;82.25;101042.02;1692521;84;21443;-51
2023/01/09 06:21:46;;;;;;;19.25;7.08;;;;;;;-4.61;82.29;101037.83;1692877;84;21089;-48
2023/01/09 06:24:16;;;;;;;16.25;6.20;;;;;;;-4.59;82.25;101034.60;1692700;84;21075;-50
2023/01/09 06:26:46;;;;;;;16.70;6.92;;;;;;;-4.60;82.20;101028.39;1636714;87;21030;-49
2023/01/09 06:29:15;;;;;;;14.15;6.10;;;;;;;-4.57;82.26;101040.72;1636824;87;21495;-49
2023/01/09 06:31:44;;;;;;;14.28;6.10;;;;;;;-4.56;82.23;101032.62;1636922;88;21023;-51
2023/01/09 06:34:15;;;;;;;16.65;6.58;;;;;;;-4.59;82.08;101030.59;1636798;88;21022;-50
2023/01/09 06:36:45;;;;;;;19.12;6.37;;;;;;;-4.59;82.16;101025.24;1636916;88;21474;-50
2023/01/09 06:39:14;;;;;;;18.35;6.80;;;;;;;-4.56;82.25;101027.74;1636835;88;21593;-50
2023/01/09 06:41:44;;;;;;;21.20;7.75;;;;;;;-4.56;82.21;101027.27;1637028;88;21106;-50
2023/01/09 06:44:15;;;;;;;16.52;6.85;;;;;;;-4.56;82.37;101022.40;1649029;85;21062;-50
2023/01/09 06:46:44;;;;;;;18.25;8.25;;;;;;;-4.49;82.48;101029.16;1692728;84;21019;-49
2023/01/09 06:49:13;;;;;;;14.28;5.85;;;;;;;-4.50;82.55;101020.27;1692878;85;21038;-49
2023/01/09 06:51:42;;;;;;;18.37;7.05;;;;;;;-4.45;82.74;101013.33;1692593;84;21062;-49
2023/01/09 06:54:11;;;;;;;19.70;7.28;;;;;;;-4.45;82.65;101019.15;1692711;85;21038;-50
2023/01/09 06:56:40;;;;;;;16.60;6.37;;;;;;;-4.44;82.82;101012.38;1692845;85;21003;-50
2023/01/09 06:59:11;;;;;;;15.65;6.60;;;;;;;-4.35;82.98;101023.02;1692875;84;21100;-50
2023/01/09 07:01:41;;;;;;;17.37;6.58;;;;;;;-4.35;82.98;101023.02;1692591;85;21491;-51
2023/01/09 07:04:12;;;;;;;14.65;6.00;;;;;;;-4.32;83.09;101024.19;1692720;85;21483;-51
2023/01/09 07:06:41;;;;;;;17.90;6.95;;;;;;;-4.30;83.13;101029.84;1692630;84;21342;-54
2023/01/09 07:09:12;;;;;;;15.35;6.10;;;;;;;-4.29;82.95;101014.17;1692838;85;21110;-50
2023/01/09 07:11:40;;;;;;;16.07;6.83;;;;;;;-4.28;82.76;101005.67;1692911;84;21050;-51
2023/01/09 07:14:09;;;;;;;15.25;6.80;;;;;;;-4.28;82.76;101005.67;1692547;85;21054;-49
2023/01/09 07:16:40;;;;;;;15.78;6.20;;;;;;;-4.23;82.81;101013.81;1692506;85;21265;-50
2023/01/09 07:19:09;;;;;;;13.10;5.33;;;;;;;-4.22;82.62;101013.34;1692637;85;21062;-49
2023/01/09 07:21:38;;;;;;;18.85;6.08;;;;;;;-4.25;82.62;101013.52;1690307;83;21090;-50
2023/01/09 07:24:07;;;;;;;16.17;5.75;;;;;;;-4.24;82.65;101010.75;1689840;84;21078;-50
2023/01/09 07:26:36;;;;;;;16.42;5.28;;;;;;;-4.24;82.65;101010.75;1689847;85;21011;-51
2023/01/09 07:29:05;;;;;;;16.67;5.90;;;;;;;-4.22;82.63;101003.50;1689629;85;21502;-53
2023/01/09 07:31:34;;;;;;;15.08;4.58;;;;;;;-4.19;82.59;101014.03;1709520;83;20978;-50
2023/01/09 07:34:03;;;;;;;13.68;5.15;;;;;;;-4.19;82.59;101015.36;1689615;85;21034;-51
2023/01/09 07:36:32;;;;;;;15.93;6.15;;;;;;;-4.19;82.59;101015.36;1689663;84;21514;-51
2023/01/09 07:39:02;;;;;;;13.25;5.58;;;;;;;-4.15;82.95;101015.57;1689739;85;21062;-50
2023/01/09 07:41:32;;;;;;;13.15;5.42;;;;;;;-4.15;82.95;101015.57;1709526;84;21410;-50
2023/01/09 07:44:01;;;;;;;17.75;6.00;;;;;;;-4.16;82.93;101017.86;1689518;84;21475;-50
2023/01/09 07:46:30;;;;;;;18.45;6.53;;;;;;;-4.11;82.97;101011.38;1689931;85;21039;-52
2023/01/09 07:48:59;;;;;;;16.60;6.22;;;;;;;-4.11;82.97;101011.38;1689829;84;21010;-51
2023/01/09 07:51:31;;;;;;;17.87;5.87;;;;;;;-4.10;83.13;101015.78;1709560;84;21022;-50
2023/01/09 07:54:00;;;;;;;14.75;5.97;;;;;;;-4.08;83.25;101013.41;1689732;85;21466;-51
2023/01/09 07:56:31;;;;;;;13.10;6.15;;;;;;;-4.03;83.37;101019.83;1689851;84;21537;-50
2023/01/09 07:59:00;;;;;;;18.55;5.67;;;;;;;-4.00;83.42;101006.27;1709629;84;21445;-50
2023/01/09 08:01:29;;;;;;;12.63;5.15;;;;;;;-4.01;83.63;101021.45;1660866;86;21054;-51
2023/01/09 08:03:59;;;;;;;17.42;6.10;;;;;;;-4.01;83.63;101021.45;1709555;83;20993;-51
2023/01/09 08:06:30;;;;;;;13.22;5.15;;;;;;;-4.01;83.67;101015.24;1709540;84;21002;-50
2023/01/09 08:08:59;;;;;;;14.35;5.25;;;;;;;-3.96;83.95;101020.71;1709569;84;21413;-51
2023/01/09 13:38:00;;;;;;;23.40;7.95;;;;;;;-2.67;97.57;100817.94;1835637;77;25397;-57
2023/01/09 13:40:51;;;;;;;27.10;10.08;;;;;;;-2.70;97.57;100818.14;1800268;79;21262;-56
2023/01/09 13:43:53;;;;;;;32.70;11.28;;;;;;;-2.65;97.55;100822.71;1757771;80;21133;-61
2023/01/09 13:46:45;;;;;;;19.30;8.63;;;;;;;-2.61;97.55;100827.77;1768869;79;21145;-60
2023/01/09 13:49:44;;;;;;;17.30;7.15;;;;;;;-2.52;97.54;100834.84;1769442;75;21116;-58
2023/01/09 13:52:35;;;;;;;13.50;5.17;;;;;;;-2.46;97.51;100825.91;1763568;81;21176;-57
2023/01/09 13:55:22;;;;;;;17.07;6.25;;;;;;;-2.39;97.43;100831.71;1756917;81;21164;-58
2023/01/09 13:58:13;;;;;;;14.65;5.60;;;;;;;-2.34;97.34;100822.86;1750145;82;21119;-57
2023/01/09 14:00:44;;;;;;;14.93;5.47;;;;;;;-2.31;97.27;100819.48;1745328;81;21138;-58
2023/01/09 14:03:30;;;;;;;12.30;6.00;;;;;;;-2.27;97.17;100827.70;1745561;82;21149;-58
2023/01/09 14:06:04;;;;;;;11.45;5.62;;;;;;;-2.25;97.11;100825.77;1754274;80;21501;-60
2023/01/09 14:08:33;;;;;;;14.90;5.85;;;;;;;-2.22;97.03;100826.53;1764754;81;21665;-58
2023/01/09 14:11:03;;;;;;;15.63;6.30;;;;;;;-2.19;97.00;100826.31;1764611;81;21398;-57
2023/01/09 14:13:42;;;;;;;14.85;5.70;;;;;;;-2.17;97.05;100822.56;1764472;81;21140;-57
2023/01/09 14:16:23;;;;;;;16.17;6.05;;;;;;;-2.12;97.06;100824.44;1764574;81;21184;-57
2023/01/09 14:19:01;;;;;;;12.70;5.75;;;;;;;-2.08;97.02;100813.01;1764386;81;21168;-58
2023/01/09 14:21:54;;;;;;;13.40;5.15;;;;;;;-2.05;96.96;100819.02;1764510;81;21596;-58
2023/01/09 14:24:35;;;;;;;9.23;4.30;;;;;;;-2.01;96.93;100829.06;1733974;83;21167;-56
2023/01/09 14:27:03;;;;;;;13.25;5.05;;;;;;;-1.98;96.91;100824.82;1734438;82;21597;-58
2023/01/09 14:29:38;;;;;;;11.25;4.37;;;;;;;-1.96;96.85;100822.89;1687103;84;21655;-58
2023/01/09 14:32:32;;;;;;;11.70;5.03;;;;;;;-1.95;96.80;100815.24;1686618;84;21591;-59
2023/01/09 14:35:16;;;;;;;12.03;4.95;;;;;;;-1.93;96.80;100819.54;1686701;85;21120;-57
2023/01/09 14:37:51;;;;;;;12.55;4.90;;;;;;;-1.89;96.78;100817.50;1686608;83;21156;-58
2023/01/09 14:40:22;;;;;;;13.35;4.97;;;;;;;-1.87;96.73;100818.73;1653390;87;21268;-56
2023/01/09 14:42:54;;;;;;;13.90;5.28;;;;;;;-1.87;96.75;100807.51;1734272;83;21197;-58
2023/01/09 14:45:25;;;;;;;13.65;5.20;;;;;;;-1.85;96.74;100817.66;1687024;85;21147;-58
2023/01/09 14:48:00;;;;;;;13.43;5.72;;;;;;;-1.83;96.76;100825.12;1686488;85;21212;-57
2023/01/09 14:50:37;;;;;;;12.47;5.25;;;;;;;-1.79;96.83;100824.42;1638655;87;21561;-59
2023/01/09 14:53:21;;;;;;;;;;;;;;;-1.76;96.84;100834.47;1662874;86;21130;-57
2023/01/09 14:56:00;;;;;;;10.60;4.85;;;;;;;-1.73;96.85;100837.41;1672365;85;20151;-58
2023/01/09 14:58:32;;;;;;;9.50;4.47;;;;;;;-1.73;96.87;100831.56;1653296;86;21139;-57
2023/01/09 15:01:11;;;;;;;11.95;5.33;;;;;;;-1.72;96.86;100826.56;1654096;86;21147;-58
2023/01/09 15:03:54;;;;;;;11.43;4.78;;;;;;;-1.73;96.83;100819.95;1708281;84;21113;-59
2023/01/09 15:06:30;;;;;;;13.48;5.65;;;;;;;-1.72;96.87;100822.53;1706779;83;21138;-58
2023/01/09 15:09:23;;;;;;;14.15;5.03;;;;;;;-1.70;96.93;100820.59;1706247;83;21161;-57
2023/01/09 15:11:54;;;;;;;16.20;5.87;;;;;;;-1.66;96.94;100818.06;1706461;84;21176;-58
2023/01/09 15:14:31;;;;;;;14.35;5.03;;;;;;;-1.65;96.94;100819.78;1706244;83;21208;-58
2023/01/09 15:17:00;;;;;;;17.00;6.15;;;;;;;-1.62;96.95;100830.80;1706298;83;21544;-56
2023/01/09 15:19:30;;;;;;;12.60;6.12;;;;;;;-1.59;96.93;100838.64;1710053;84;21133;-58
2023/01/09 15:22:03;;;;;;;16.07;5.65;;;;;;;-1.58;96.90;100836.81;1706206;83;21144;-59
2023/01/09 15:24:33;;;;;;;18.87;7.20;;;;;;;-1.57;96.87;100831.81;1706297;84;21126;-58
2023/01/09 15:27:10;;;;;;;21.75;7.87;;;;;;;-1.57;96.90;100829.13;1706316;84;21201;-57
2023/01/09 15:29:39;;;;;;;19.70;7.93;;;;;;;-1.55;96.89;100827.19;1706500;83;21165;-59
2023/01/09 15:32:23;;;;;;;21.52;7.55;;;;;;;-1.53;96.90;100827.94;1706188;84;21208;-58
2023/01/09 15:34:55;;;;;;;18.80;7.97;;;;;;;-1.53;96.86;100830.14;1709485;83;21153;-58
2023/01/09 15:37:34;;;;;;;23.60;7.53;;;;;;;-1.52;96.83;100822.45;1686494;83;21165;-59
2023/01/09 15:40:06;;;;;;;19.37;7.00;;;;;;;-1.52;96.80;100817.56;1706070;84;21157;-57
2023/01/09 15:42:54;;;;;;;23.05;8.08;;;;;;;-1.50;96.75;100821.00;1706346;84;21105;-57
2023/01/09 15:45:33;;;;;;;22.22;7.03;;;;;;;-1.48;96.73;100820.41;1706195;83;21619;-57
2023/01/09 15:48:26;;;;;;;17.95;7.22;;;;;;;-1.48;96.62;100813.69;1706447;84;21153;-57
2023/01/09 15:50:59;;;;;;;18.10;6.20;;;;;;;-1.47;96.57;100811.37;1734277;82;21119;-57
2023/01/09 15:53:28;;;;;;;19.10;6.55;;;;;;;-1.46;96.50;100810.41;1735807;83;21134;-57
2023/01/09 15:56:15;;;;;;;15.75;6.03;;;;;;;-1.45;96.41;100813.46;1735320;82;21151;-58
2023/01/09 15:58:47;;;;;;;13.48;5.20;;;;;;;-1.45;96.30;100812.12;1735596;83;21110;-56
2023/01/09 16:01:34;;;;;;;19.40;7.17;;;;;;;-1.46;96.18;100803.20;1735441;83;21166;-59
2023/01/09 16:04:08;;;;;;;16.40;6.20;;;;;;;-1.43;96.17;100818.24;1735327;83;21150;-59
2023/01/09 16:06:44;;;;;;;18.10;6.30;;;;;;;-1.43;96.00;100807.48;1735682;81;21115;-56
2023/01/09 16:09:20;;;;;;;19.15;6.85;;;;;;;-1.42;95.95;100808.72;1735579;83;21176;-58
2023/01/09 16:11:52;;;;;;;22.90;7.77;;;;;;;-1.39;95.79;100808.98;1734170;82;21119;-55
2023/01/09 16:14:31;;;;;;;24.30;8.10;;;;;;;-1.40;95.51;100814.84;1735408;83;21248;-54
2023/01/09 16:17:10;;;;;;;20.97;7.80;;;;;;;-1.39;95.45;100812.53;1751094;81;21569;-56
2023/01/09 16:20:14;;;;;;;21.50;7.42;;;;;;;-1.38;95.35;100809.36;1763955;80;21137;-55
2023/01/09 16:22:56;;;;;;;21.70;6.95;;;;;;;-1.35;95.25;100814.52;1756095;81;21120;-56
2023/01/09 16:25:34;;;;;;;17.17;7.05;;;;;;;-1.33;95.07;100816.60;1763778;81;21528;-54
2023/01/09 16:28:29;;;;;;;24.45;7.83;;;;;;;-1.31;94.93;100805.25;1763958;81;21201;-56
2023/01/09 16:31:23;;;;;;;18.00;6.30;;;;;;;-1.32;94.63;100807.57;1763785;81;21152;-55
2023/01/09 16:34:06;;;;;;;22.95;7.70;;;;;;;-1.31;94.48;100806.59;1763733;81;21093;-54
2023/01/09 16:36:38;;;;;;;29.02;7.40;;;;;;;-1.32;94.28;100805.74;1763584;81;21089;-55
2023/01/09 16:39:13;;;;;;;23.32;7.15;;;;;;;-1.31;94.13;100807.94;1763652;81;21140;-54
2023/01/09 16:44:35;;;;;;;19.75;6.45;;;;;;;-1.30;93.85;100803.83;1764018;81;21517;-57
2023/01/09 16:47:17;;;;;;;19.77;6.20;;;;;;;-1.29;93.68;100796.63;1763844;81;21629;-57
2023/01/09 16:50:20;;;;;;;12.20;5.03;;;;;;;-1.29;93.44;100795.28;1755352;81;21140;-55
2023/01/09 16:52:59;;;;;;;11.90;5.10;;;;;;;-1.28;93.20;100801.03;1738149;81;21096;-57
2023/01/09 16:55:29;;;;;;;14.18;5.55;;;;;;;-1.27;93.07;100802.75;1715738;83;21590;-56
2023/01/09 16:57:59;;;;;;;17.48;5.15;;;;;;;-1.25;92.82;100803.50;1759218;80;21071;-56
2023/01/09 17:00:28;;;;;;;13.08;5.03;;;;;;;-1.24;92.50;100803.87;1766084;81;21131;-55
2023/01/09 17:02:57;;;;;;;15.78;5.30;;;;;;;-1.25;92.13;100803.98;1765934;81;21547;-54
2023/01/09 17:05:26;;;;;;;17.60;4.83;;;;;;;-1.23;92.14;100805.58;1766203;81;22239;-55
2023/01/09 17:07:55;;;;;;;13.72;5.00;;;;;;;-1.23;91.56;100804.24;1765412;81;21142;-55
2023/01/09 17:10:26;;;;;;;14.87;4.62;;;;;;;-1.22;91.41;100815.37;1765397;81;21162;-56
2023/01/09 17:12:56;;;;;;;13.62;5.40;;;;;;;-1.23;91.07;100816.34;1765483;81;21177;-55
2023/01/09 17:15:26;;;;;;;15.80;5.58;;;;;;;-1.22;90.83;100811.34;1766530;80;21527;-56
2023/01/09 17:17:59;;;;;;;20.48;5.03;;;;;;;-1.21;90.60;100815.73;1766140;80;21143;-57
2023/01/09 17:20:28;;;;;;;15.93;4.97;;;;;;;-1.21;90.30;100813.54;1766247;81;21117;-55